sensor_id;sensor_type;location;lat;lon;timestamp;P1;durP1;ratioP1;P2;durP2;ratioP2
28627;SDS011;15815;46.760;19.604;2023-08-12T00:02:11;3.53;;;2.53;;
28627;SDS011;15815;46.760;19.604;2023-08-12T00:04:37;5.85;;;2.53;;
28627;SDS011;15815;46.760;19.604;2023-08-12T00:07:03;3.70;;;2.35;;
28627;SDS011;15815;46.760;19.604;2023-08-12T00:09:28;6.07;;;2.83;;
28627;SDS011;15815;46.760;19.604;2023-08-12T00:11:54;3.17;;;2.28;;
28627;SDS011;15815;46.760;19.604;2023-08-12T00:14:19;5.03;;;2.55;;
28627;SDS011;15815;46.760;19.604;2023-08-12T00:16:45;3.50;;;2.70;;
28627;SDS011;15815;46.760;19.604;2023-08-12T00:19:13;6.15;;;3.00;;
28627;SDS011;15815;46.760;19.604;2023-08-12T00:21:40;5.85;;;2.80;;
28627;SDS011;15815;46.760;19.604;2023-08-12T00:24:06;6.00;;;3.10;;
28627;SDS011;15815;46.760;19.604;2023-08-12T00:26:31;7.53;;;2.60;;
28627;SDS011;15815;46.760;19.604;2023-08-12T00:28:57;6.80;;;2.30;;
28627;SDS011;15815;46.760;19.604;2023-08-12T00:31:22;9.85;;;2.72;;
28627;SDS011;15815;46.760;19.604;2023-08-12T00:33:48;4.10;;;2.40;;
28627;SDS011;15815;46.760;19.604;2023-08-12T00:36:13;4.15;;;2.72;;
28627;SDS011;15815;46.760;19.604;2023-08-12T00:38:39;2.33;;;1.73;;
28627;SDS011;15815;46.760;19.604;2023-08-12T00:41:04;3.60;;;2.30;;
28627;SDS011;15815;46.760;19.604;2023-08-12T00:43:30;2.78;;;2.53;;
28627;SDS011;15815;46.760;19.604;2023-08-12T00:45:55;5.50;;;2.58;;
28627;SDS011;15815;46.760;19.604;2023-08-12T00:48:21;8.00;;;2.58;;
28627;SDS011;15815;46.760;19.604;2023-08-12T00:50:47;5.13;;;2.63;;
28627;SDS011;15815;46.760;19.604;2023-08-12T00:53:12;3.97;;;1.85;;
28627;SDS011;15815;46.760;19.604;2023-08-12T00:55:42;2.95;;;2.28;;
28627;SDS011;15815;46.760;19.604;2023-08-12T00:58:07;4.50;;;2.33;;
28627;SDS011;15815;46.760;19.604;2023-08-12T01:00:33;3.35;;;2.60;;
28627;SDS011;15815;46.760;19.604;2023-08-12T01:02:59;3.53;;;2.55;;
28627;SDS011;15815;46.760;19.604;2023-08-12T01:05:30;2.88;;;2.20;;
28627;SDS011;15815;46.760;19.604;2023-08-12T01:07:56;4.63;;;2.60;;
28627;SDS011;15815;46.760;19.604;2023-08-12T01:10:25;2.70;;;2.50;;
28627;SDS011;15815;46.760;19.604;2023-08-12T01:13:07;5.13;;;2.58;;
28627;SDS011;15815;46.760;19.604;2023-08-12T01:15:42;2.63;;;1.98;;
28627;SDS011;15815;46.760;19.604;2023-08-12T01:18:10;2.38;;;2.17;;
28627;SDS011;15815;46.760;19.604;2023-08-12T01:20:37;3.70;;;2.20;;
28627;SDS011;15815;46.760;19.604;2023-08-12T01:23:10;2.75;;;2.40;;
28627;SDS011;15815;46.760;19.604;2023-08-12T01:25:36;3.38;;;2.35;;
28627;SDS011;15815;46.760;19.604;2023-08-12T01:28:02;3.83;;;2.60;;
28627;SDS011;15815;46.760;19.604;2023-08-12T01:30:27;5.65;;;2.60;;
28627;SDS011;15815;46.760;19.604;2023-08-12T01:33:10;4.78;;;2.80;;
28627;SDS011;15815;46.760;19.604;2023-08-12T01:35:50;4.88;;;2.20;;
28627;SDS011;15815;46.760;19.604;2023-08-12T01:38:24;1.90;;;1.70;;
28627;SDS011;15815;46.760;19.604;2023-08-12T01:40:53;3.17;;;2.30;;
28627;SDS011;15815;46.760;19.604;2023-08-12T01:43:23;3.47;;;2.10;;
28627;SDS011;15815;46.760;19.604;2023-08-12T01:45:50;3.50;;;2.77;;
28627;SDS011;15815;46.760;19.604;2023-08-12T01:48:15;2.60;;;2.17;;
28627;SDS011;15815;46.760;19.604;2023-08-12T01:50:41;3.53;;;2.45;;
28627;SDS011;15815;46.760;19.604;2023-08-12T01:53:06;3.55;;;2.53;;
28627;SDS011;15815;46.760;19.604;2023-08-12T01:55:34;4.72;;;1.80;;
28627;SDS011;15815;46.760;19.604;2023-08-12T01:58:00;3.50;;;2.40;;
28627;SDS011;15815;46.760;19.604;2023-08-12T02:00:25;2.88;;;2.38;;
28627;SDS011;15815;46.760;19.604;2023-08-12T02:02:51;3.65;;;2.40;;
28627;SDS011;15815;46.760;19.604;2023-08-12T02:05:16;4.05;;;2.35;;
28627;SDS011;15815;46.760;19.604;2023-08-12T02:07:42;2.97;;;2.28;;
28627;SDS011;15815;46.760;19.604;2023-08-12T02:10:07;3.50;;;2.42;;
28627;SDS011;15815;46.760;19.604;2023-08-12T02:12:33;3.38;;;2.42;;
28627;SDS011;15815;46.760;19.604;2023-08-12T02:14:58;3.40;;;2.45;;
28627;SDS011;15815;46.760;19.604;2023-08-12T02:17:24;2.95;;;2.35;;
28627;SDS011;15815;46.760;19.604;2023-08-12T02:19:49;3.67;;;2.15;;
28627;SDS011;15815;46.760;19.604;2023-08-12T02:22:15;2.92;;;2.35;;
28627;SDS011;15815;46.760;19.604;2023-08-12T02:24:40;2.92;;;2.03;;
28627;SDS011;15815;46.760;19.604;2023-08-12T02:27:06;3.90;;;2.47;;
28627;SDS011;15815;46.760;19.604;2023-08-12T02:29:34;3.55;;;2.33;;
28627;SDS011;15815;46.760;19.604;2023-08-12T02:32:09;4.47;;;2.75;;
28627;SDS011;15815;46.760;19.604;2023-08-12T02:34:34;4.18;;;2.58;;
28627;SDS011;15815;46.760;19.604;2023-08-12T02:37:00;3.08;;;2.33;;
28627;SDS011;15815;46.760;19.604;2023-08-12T02:39:26;3.67;;;2.47;;
28627;SDS011;15815;46.760;19.604;2023-08-12T02:41:51;3.80;;;2.92;;
28627;SDS011;15815;46.760;19.604;2023-08-12T02:44:17;2.80;;;2.20;;
28627;SDS011;15815;46.760;19.604;2023-08-12T02:46:42;2.53;;;2.03;;
28627;SDS011;15815;46.760;19.604;2023-08-12T02:49:08;5.75;;;2.47;;
28627;SDS011;15815;46.760;19.604;2023-08-12T02:51:33;3.08;;;2.20;;
28627;SDS011;15815;46.760;19.604;2023-08-12T02:53:59;5.05;;;2.63;;
28627;SDS011;15815;46.760;19.604;2023-08-12T02:56:24;3.05;;;2.65;;
28627;SDS011;15815;46.760;19.604;2023-08-12T02:58:50;4.75;;;2.45;;
28627;SDS011;15815;46.760;19.604;2023-08-12T03:01:15;2.95;;;2.30;;
28627;SDS011;15815;46.760;19.604;2023-08-12T03:03:40;2.45;;;2.15;;
28627;SDS011;15815;46.760;19.604;2023-08-12T03:06:06;2.47;;;2.03;;
28627;SDS011;15815;46.760;19.604;2023-08-12T03:08:31;2.40;;;2.13;;
28627;SDS011;15815;46.760;19.604;2023-08-12T03:10:58;4.43;;;2.53;;
28627;SDS011;15815;46.760;19.604;2023-08-12T03:13:27;3.33;;;2.42;;
28627;SDS011;15815;46.760;19.604;2023-08-12T03:15:53;3.15;;;2.17;;
28627;SDS011;15815;46.760;19.604;2023-08-12T03:18:19;4.20;;;2.47;;
28627;SDS011;15815;46.760;19.604;2023-08-12T03:20:44;6.25;;;2.28;;
28627;SDS011;15815;46.760;19.604;2023-08-12T03:23:10;3.65;;;2.80;;
28627;SDS011;15815;46.760;19.604;2023-08-12T03:25:36;4.22;;;2.85;;
28627;SDS011;15815;46.760;19.604;2023-08-12T03:28:01;4.00;;;2.40;;
28627;SDS011;15815;46.760;19.604;2023-08-12T03:30:27;3.20;;;2.50;;
28627;SDS011;15815;46.760;19.604;2023-08-12T03:32:52;2.72;;;2.33;;
28627;SDS011;15815;46.760;19.604;2023-08-12T03:35:18;4.22;;;2.50;;
28627;SDS011;15815;46.760;19.604;2023-08-12T03:37:44;3.17;;;2.38;;
28627;SDS011;15815;46.760;19.604;2023-08-12T03:40:12;2.50;;;1.88;;
28627;SDS011;15815;46.760;19.604;2023-08-12T03:42:38;3.55;;;2.38;;
28627;SDS011;15815;46.760;19.604;2023-08-12T03:45:03;3.08;;;2.58;;
28627;SDS011;15815;46.760;19.604;2023-08-12T03:47:30;3.67;;;2.17;;
28627;SDS011;15815;46.760;19.604;2023-08-12T03:49:56;3.15;;;2.17;;
28627;SDS011;15815;46.760;19.604;2023-08-12T03:52:21;4.70;;;2.28;;
28627;SDS011;15815;46.760;19.604;2023-08-12T03:54:47;2.55;;;2.30;;
28627;SDS011;15815;46.760;19.604;2023-08-12T03:57:12;3.95;;;2.55;;
28627;SDS011;15815;46.760;19.604;2023-08-12T03:59:38;3.50;;;2.25;;
28627;SDS011;15815;46.760;19.604;2023-08-12T04:02:03;3.30;;;2.20;;
28627;SDS011;15815;46.760;19.604;2023-08-12T04:04:29;2.78;;;2.20;;
28627;SDS011;15815;46.760;19.604;2023-08-12T04:06:54;2.58;;;2.30;;
28627;SDS011;15815;46.760;19.604;2023-08-12T04:09:20;4.45;;;2.30;;
28627;SDS011;15815;46.760;19.604;2023-08-12T04:11:46;3.67;;;2.35;;
28627;SDS011;15815;46.760;19.604;2023-08-12T04:14:15;3.08;;;2.15;;
28627;SDS011;15815;46.760;19.604;2023-08-12T04:16:40;3.25;;;2.30;;
28627;SDS011;15815;46.760;19.604;2023-08-12T04:19:06;2.58;;;2.33;;
28627;SDS011;15815;46.760;19.604;2023-08-12T04:21:31;2.72;;;1.95;;
28627;SDS011;15815;46.760;19.604;2023-08-12T04:23:57;3.90;;;2.53;;
28627;SDS011;15815;46.760;19.604;2023-08-12T04:26:22;2.45;;;1.98;;
28627;SDS011;15815;46.760;19.604;2023-08-12T04:28:48;3.35;;;2.08;;
28627;SDS011;15815;46.760;19.604;2023-08-12T04:31:14;4.15;;;3.55;;
28627;SDS011;15815;46.760;19.604;2023-08-12T04:33:40;3.63;;;2.17;;
28627;SDS011;15815;46.760;19.604;2023-08-12T04:36:05;2.50;;;2.10;;
28627;SDS011;15815;46.760;19.604;2023-08-12T04:38:31;3.22;;;2.40;;
28627;SDS011;15815;46.760;19.604;2023-08-12T04:40:57;2.85;;;2.03;;
28627;SDS011;15815;46.760;19.604;2023-08-12T04:43:22;2.83;;;2.00;;
28627;SDS011;15815;46.760;19.604;2023-08-12T04:45:48;1.92;;;1.70;;
28627;SDS011;15815;46.760;19.604;2023-08-12T04:48:13;2.60;;;2.15;;
28627;SDS011;15815;46.760;19.604;2023-08-12T04:50:39;3.25;;;2.17;;
28627;SDS011;15815;46.760;19.604;2023-08-12T04:53:07;2.10;;;1.90;;
28627;SDS011;15815;46.760;19.604;2023-08-12T04:55:33;2.80;;;1.92;;
28627;SDS011;15815;46.760;19.604;2023-08-12T04:58:02;2.97;;;1.67;;
28627;SDS011;15815;46.760;19.604;2023-08-12T05:00:27;2.75;;;1.75;;
28627;SDS011;15815;46.760;19.604;2023-08-12T05:02:53;4.07;;;2.10;;
28627;SDS011;15815;46.760;19.604;2023-08-12T05:05:19;1.92;;;1.58;;
28627;SDS011;15815;46.760;19.604;2023-08-12T05:07:45;1.70;;;1.52;;
28627;SDS011;15815;46.760;19.604;2023-08-12T05:10:10;2.10;;;1.90;;
28627;SDS011;15815;46.760;19.604;2023-08-12T05:12:36;4.90;;;1.73;;
28627;SDS011;15815;46.760;19.604;2023-08-12T05:15:01;1.98;;;1.48;;
28627;SDS011;15815;46.760;19.604;2023-08-12T05:17:27;1.65;;;1.52;;
28627;SDS011;15815;46.760;19.604;2023-08-12T05:19:52;1.60;;;1.40;;
28627;SDS011;15815;46.760;19.604;2023-08-12T05:22:17;1.50;;;1.40;;
28627;SDS011;15815;46.760;19.604;2023-08-12T05:24:43;2.50;;;1.48;;
28627;SDS011;15815;46.760;19.604;2023-08-12T05:27:08;1.73;;;1.38;;
28627;SDS011;15815;46.760;19.604;2023-08-12T05:29:34;1.60;;;1.42;;
28627;SDS011;15815;46.760;19.604;2023-08-12T05:31:59;1.83;;;1.60;;
28627;SDS011;15815;46.760;19.604;2023-08-12T05:34:25;1.58;;;1.48;;
28627;SDS011;15815;46.760;19.604;2023-08-12T05:36:51;2.15;;;1.75;;
28627;SDS011;15815;46.760;19.604;2023-08-12T05:39:16;2.15;;;1.67;;
28627;SDS011;15815;46.760;19.604;2023-08-12T05:41:41;1.52;;;1.42;;
28627;SDS011;15815;46.760;19.604;2023-08-12T05:44:07;3.45;;;1.40;;
28627;SDS011;15815;46.760;19.604;2023-08-12T05:46:32;2.13;;;1.73;;
28627;SDS011;15815;46.760;19.604;2023-08-12T05:48:58;2.03;;;1.80;;
28627;SDS011;15815;46.760;19.604;2023-08-12T05:51:24;1.80;;;1.70;;
28627;SDS011;15815;46.760;19.604;2023-08-12T05:53:49;2.20;;;1.70;;
28627;SDS011;15815;46.760;19.604;2023-08-12T05:56:15;2.42;;;1.83;;
28627;SDS011;15815;46.760;19.604;2023-08-12T05:58:41;2.13;;;1.80;;
28627;SDS011;15815;46.760;19.604;2023-08-12T06:01:06;2.80;;;1.92;;
28627;SDS011;15815;46.760;19.604;2023-08-12T06:03:35;2.45;;;1.98;;
28627;SDS011;15815;46.760;19.604;2023-08-12T06:06:00;1.40;;;1.30;;
28627;SDS011;15815;46.760;19.604;2023-08-12T06:08:26;1.80;;;1.60;;
28627;SDS011;15815;46.760;19.604;2023-08-12T06:10:51;3.63;;;2.10;;
28627;SDS011;15815;46.760;19.604;2023-08-12T06:13:17;3.95;;;2.00;;
28627;SDS011;15815;46.760;19.604;2023-08-12T06:15:42;2.58;;;1.73;;
28627;SDS011;15815;46.760;19.604;2023-08-12T06:18:08;2.42;;;1.85;;
28627;SDS011;15815;46.760;19.604;2023-08-12T06:20:33;1.80;;;1.70;;
28627;SDS011;15815;46.760;19.604;2023-08-12T06:22:59;2.88;;;2.38;;
28627;SDS011;15815;46.760;19.604;2023-08-12T06:25:24;1.95;;;1.60;;
28627;SDS011;15815;46.760;19.604;2023-08-12T06:27:50;1.75;;;1.38;;
28627;SDS011;15815;46.760;19.604;2023-08-12T06:30:15;2.67;;;1.70;;
28627;SDS011;15815;46.760;19.604;2023-08-12T06:32:44;1.75;;;1.50;;
28627;SDS011;15815;46.760;19.604;2023-08-12T06:35:09;2.05;;;1.45;;
28627;SDS011;15815;46.760;19.604;2023-08-12T06:37:35;2.33;;;1.67;;
28627;SDS011;15815;46.760;19.604;2023-08-12T06:40:01;2.28;;;1.63;;
28627;SDS011;15815;46.760;19.604;2023-08-12T06:42:26;1.90;;;1.23;;
28627;SDS011;15815;46.760;19.604;2023-08-12T06:44:55;1.20;;;1.10;;
28627;SDS011;15815;46.760;19.604;2023-08-12T06:47:22;1.88;;;1.25;;
28627;SDS011;15815;46.760;19.604;2023-08-12T06:49:48;0.80;;;0.80;;
28627;SDS011;15815;46.760;19.604;2023-08-12T06:52:13;1.67;;;1.45;;
28627;SDS011;15815;46.760;19.604;2023-08-12T06:54:39;1.30;;;1.00;;
28627;SDS011;15815;46.760;19.604;2023-08-12T06:57:04;1.55;;;1.05;;
28627;SDS011;15815;46.760;19.604;2023-08-12T06:59:30;1.40;;;1.00;;
28627;SDS011;15815;46.760;19.604;2023-08-12T07:01:56;1.38;;;0.80;;
28627;SDS011;15815;46.760;19.604;2023-08-12T07:04:21;1.55;;;1.20;;
28627;SDS011;15815;46.760;19.604;2023-08-12T07:06:47;2.15;;;1.10;;
28627;SDS011;15815;46.760;19.604;2023-08-12T07:09:13;1.33;;;1.00;;
28627;SDS011;15815;46.760;19.604;2023-08-12T07:11:38;1.58;;;1.30;;
28627;SDS011;15815;46.760;19.604;2023-08-12T07:14:04;1.33;;;1.02;;
28627;SDS011;15815;46.760;19.604;2023-08-12T07:16:29;1.00;;;0.90;;
28627;SDS011;15815;46.760;19.604;2023-08-12T07:18:55;1.60;;;1.00;;
28627;SDS011;15815;46.760;19.604;2023-08-12T07:21:20;1.10;;;1.00;;
28627;SDS011;15815;46.760;19.604;2023-08-12T07:23:49;2.35;;;1.13;;
28627;SDS011;15815;46.760;19.604;2023-08-12T07:26:14;1.70;;;1.10;;
28627;SDS011;15815;46.760;19.604;2023-08-12T07:28:40;1.98;;;1.30;;
28627;SDS011;15815;46.760;19.604;2023-08-12T07:31:05;3.28;;;1.10;;
28627;SDS011;15815;46.760;19.604;2023-08-12T07:33:31;2.35;;;0.80;;
28627;SDS011;15815;46.760;19.604;2023-08-12T07:35:56;1.10;;;1.00;;
28627;SDS011;15815;46.760;19.604;2023-08-12T07:38:23;2.90;;;1.17;;
28627;SDS011;15815;46.760;19.604;2023-08-12T07:40:49;0.80;;;0.80;;
28627;SDS011;15815;46.760;19.604;2023-08-12T07:43:15;0.75;;;0.75;;
28627;SDS011;15815;46.760;19.604;2023-08-12T07:45:40;1.20;;;1.10;;
28627;SDS011;15815;46.760;19.604;2023-08-12T07:48:06;1.90;;;1.13;;
28627;SDS011;15815;46.760;19.604;2023-08-12T07:50:31;1.15;;;0.73;;
28627;SDS011;15815;46.760;19.604;2023-08-12T07:52:57;2.08;;;1.00;;
28627;SDS011;15815;46.760;19.604;2023-08-12T07:55:22;1.45;;;0.80;;
28627;SDS011;15815;46.760;19.604;2023-08-12T07:57:48;0.85;;;0.70;;
28627;SDS011;15815;46.760;19.604;2023-08-12T08:00:13;1.05;;;0.80;;
28627;SDS011;15815;46.760;19.604;2023-08-12T08:02:39;0.80;;;0.80;;
28627;SDS011;15815;46.760;19.604;2023-08-12T08:05:08;1.05;;;0.82;;
28627;SDS011;15815;46.760;19.604;2023-08-12T08:07:33;0.70;;;0.70;;
28627;SDS011;15815;46.760;19.604;2023-08-12T08:10:02;0.73;;;0.73;;
28627;SDS011;15815;46.760;19.604;2023-08-12T08:12:28;0.70;;;0.70;;
28627;SDS011;15815;46.760;19.604;2023-08-12T08:14:56;1.52;;;0.80;;
28627;SDS011;15815;46.760;19.604;2023-08-12T08:17:22;0.70;;;0.70;;
28627;SDS011;15815;46.760;19.604;2023-08-12T08:19:48;0.70;;;0.70;;
28627;SDS011;15815;46.760;19.604;2023-08-12T08:22:13;0.90;;;0.90;;
28627;SDS011;15815;46.760;19.604;2023-08-12T08:24:40;0.73;;;0.68;;
28627;SDS011;15815;46.760;19.604;2023-08-12T08:27:05;0.47;;;0.47;;
28627;SDS011;15815;46.760;19.604;2023-08-12T08:29:31;1.40;;;0.63;;
28627;SDS011;15815;46.760;19.604;2023-08-12T08:31:56;0.80;;;0.60;;
28627;SDS011;15815;46.760;19.604;2023-08-12T08:34:21;0.75;;;0.70;;
28627;SDS011;15815;46.760;19.604;2023-08-12T08:36:47;0.60;;;0.60;;
28627;SDS011;15815;46.760;19.604;2023-08-12T08:39:12;1.13;;;0.60;;
28627;SDS011;15815;46.760;19.604;2023-08-12T08:41:39;2.58;;;0.68;;
28627;SDS011;15815;46.760;19.604;2023-08-12T08:44:06;0.60;;;0.60;;
28627;SDS011;15815;46.760;19.604;2023-08-12T08:46:33;1.10;;;0.60;;
28627;SDS011;15815;46.760;19.604;2023-08-12T08:49:02;2.15;;;0.88;;
28627;SDS011;15815;46.760;19.604;2023-08-12T08:51:30;0.82;;;0.80;;
28627;SDS011;15815;46.760;19.604;2023-08-12T08:53:56;0.77;;;0.70;;
28627;SDS011;15815;46.760;19.604;2023-08-12T08:56:22;1.00;;;0.68;;
28627;SDS011;15815;46.760;19.604;2023-08-12T08:58:49;0.60;;;0.55;;
28627;SDS011;15815;46.760;19.604;2023-08-12T09:01:15;1.02;;;0.70;;
28627;SDS011;15815;46.760;19.604;2023-08-12T09:03:44;0.40;;;0.40;;
28627;SDS011;15815;46.760;19.604;2023-08-12T09:08:40;1.10;;;1.00;;
28627;SDS011;15815;46.760;19.604;2023-08-12T09:11:10;1.20;;;0.80;;
28627;SDS011;15815;46.760;19.604;2023-08-12T09:13:38;1.30;;;0.60;;
28627;SDS011;15815;46.760;19.604;2023-08-12T09:16:04;0.93;;;0.63;;
28627;SDS011;15815;46.760;19.604;2023-08-12T09:18:29;2.03;;;0.55;;
28627;SDS011;15815;46.760;19.604;2023-08-12T09:20:55;0.57;;;0.57;;
28627;SDS011;15815;46.760;19.604;2023-08-12T09:23:21;0.65;;;0.60;;
28627;SDS011;15815;46.760;19.604;2023-08-12T09:25:46;0.68;;;0.68;;
28627;SDS011;15815;46.760;19.604;2023-08-12T09:28:13;1.42;;;0.80;;
28627;SDS011;15815;46.760;19.604;2023-08-12T09:30:39;0.75;;;0.75;;
28627;SDS011;15815;46.760;19.604;2023-08-12T09:33:05;0.65;;;0.60;;
28627;SDS011;15815;46.760;19.604;2023-08-12T09:35:36;0.70;;;0.70;;
28627;SDS011;15815;46.760;19.604;2023-08-12T09:38:04;0.47;;;0.47;;
28627;SDS011;15815;46.760;19.604;2023-08-12T09:40:31;0.45;;;0.45;;
28627;SDS011;15815;46.760;19.604;2023-08-12T09:42:58;0.82;;;0.75;;
28627;SDS011;15815;46.760;19.604;2023-08-12T09:45:24;0.50;;;0.50;;
28627;SDS011;15815;46.760;19.604;2023-08-12T09:47:50;0.75;;;0.60;;
28627;SDS011;15815;46.760;19.604;2023-08-12T09:50:16;0.55;;;0.55;;
28627;SDS011;15815;46.760;19.604;2023-08-12T09:52:42;0.73;;;0.68;;
28627;SDS011;15815;46.760;19.604;2023-08-12T09:55:08;0.77;;;0.55;;
28627;SDS011;15815;46.760;19.604;2023-08-12T09:57:35;0.68;;;0.40;;
28627;SDS011;15815;46.760;19.604;2023-08-12T10:00:06;0.55;;;0.52;;
28627;SDS011;15815;46.760;19.604;2023-08-12T10:02:32;1.13;;;0.60;;
28627;SDS011;15815;46.760;19.604;2023-08-12T10:04:59;0.52;;;0.52;;
28627;SDS011;15815;46.760;19.604;2023-08-12T10:07:25;0.60;;;0.47;;
28627;SDS011;15815;46.760;19.604;2023-08-12T10:09:54;1.05;;;0.63;;
28627;SDS011;15815;46.760;19.604;2023-08-12T10:12:20;0.82;;;0.52;;
28627;SDS011;15815;46.760;19.604;2023-08-12T10:14:46;0.50;;;0.50;;
28627;SDS011;15815;46.760;19.604;2023-08-12T10:17:15;0.52;;;0.43;;
28627;SDS011;15815;46.760;19.604;2023-08-12T10:19:45;0.47;;;0.47;;
28627;SDS011;15815;46.760;19.604;2023-08-12T10:22:11;1.23;;;0.70;;
28627;SDS011;15815;46.760;19.604;2023-08-12T10:24:38;1.80;;;0.60;;
28627;SDS011;15815;46.760;19.604;2023-08-12T10:27:05;0.73;;;0.65;;
28627;SDS011;15815;46.760;19.604;2023-08-12T10:29:31;0.40;;;0.40;;
28627;SDS011;15815;46.760;19.604;2023-08-12T10:31:57;0.60;;;0.60;;
28627;SDS011;15815;46.760;19.604;2023-08-12T10:34:23;5.20;;;0.70;;
28627;SDS011;15815;46.760;19.604;2023-08-12T10:36:56;0.60;;;0.60;;
28627;SDS011;15815;46.760;19.604;2023-08-12T10:39:25;0.80;;;0.60;;
28627;SDS011;15815;46.760;19.604;2023-08-12T10:41:51;0.75;;;0.65;;
28627;SDS011;15815;46.760;19.604;2023-08-12T10:47:00;1.40;;;0.77;;
28627;SDS011;15815;46.760;19.604;2023-08-12T10:49:37;0.60;;;0.60;;
28627;SDS011;15815;46.760;19.604;2023-08-12T10:52:04;5.22;;;0.90;;
28627;SDS011;15815;46.760;19.604;2023-08-12T10:54:29;1.10;;;0.80;;
28627;SDS011;15815;46.760;19.604;2023-08-12T11:02:27;0.90;;;0.90;;
28627;SDS011;15815;46.760;19.604;2023-08-12T11:04:55;0.88;;;0.77;;
28627;SDS011;15815;46.760;19.604;2023-08-12T11:10:21;0.80;;;0.80;;
28627;SDS011;15815;46.760;19.604;2023-08-12T11:12:53;0.65;;;0.50;;
28627;SDS011;15815;46.760;19.604;2023-08-12T11:17:59;1.08;;;0.88;;
28627;SDS011;15815;46.760;19.604;2023-08-12T11:20:34;0.68;;;0.68;;
28627;SDS011;15815;46.760;19.604;2023-08-12T11:23:00;0.80;;;0.80;;
28627;SDS011;15815;46.760;19.604;2023-08-12T11:25:30;0.80;;;0.73;;
28627;SDS011;15815;46.760;19.604;2023-08-12T11:27:57;0.50;;;0.50;;
28627;SDS011;15815;46.760;19.604;2023-08-12T11:30:23;0.80;;;0.80;;
28627;SDS011;15815;46.760;19.604;2023-08-12T11:32:50;1.55;;;0.80;;
28627;SDS011;15815;46.760;19.604;2023-08-12T11:35:17;0.80;;;0.60;;
28627;SDS011;15815;46.760;19.604;2023-08-12T11:37:44;0.98;;;0.88;;
28627;SDS011;15815;46.760;19.604;2023-08-12T11:40:14;1.27;;;1.00;;
28627;SDS011;15815;46.760;19.604;2023-08-12T11:42:43;2.17;;;0.70;;
28627;SDS011;15815;46.760;19.604;2023-08-12T11:45:10;1.27;;;0.85;;
28627;SDS011;15815;46.760;19.604;2023-08-12T11:47:40;0.55;;;0.55;;
28627;SDS011;15815;46.760;19.604;2023-08-12T11:50:09;0.85;;;0.63;;
28627;SDS011;15815;46.760;19.604;2023-08-12T11:52:36;0.80;;;0.73;;
28627;SDS011;15815;46.760;19.604;2023-08-12T11:55:07;0.77;;;0.73;;
28627;SDS011;15815;46.760;19.604;2023-08-12T11:57:34;1.02;;;0.90;;
28627;SDS011;15815;46.760;19.604;2023-08-12T12:00:00;1.55;;;0.90;;
28627;SDS011;15815;46.760;19.604;2023-08-12T12:02:29;0.80;;;0.70;;
28627;SDS011;15815;46.760;19.604;2023-08-12T12:04:55;1.05;;;0.95;;
28627;SDS011;15815;46.760;19.604;2023-08-12T12:07:24;1.23;;;0.90;;
28627;SDS011;15815;46.760;19.604;2023-08-12T12:09:51;1.35;;;0.90;;
28627;SDS011;15815;46.760;19.604;2023-08-12T12:12:17;0.93;;;0.75;;
28627;SDS011;15815;46.760;19.604;2023-08-12T12:14:43;1.85;;;0.75;;
28627;SDS011;15815;46.760;19.604;2023-08-12T12:17:11;0.70;;;0.70;;
28627;SDS011;15815;46.760;19.604;2023-08-12T12:19:39;1.05;;;0.70;;
28627;SDS011;15815;46.760;19.604;2023-08-12T12:22:05;1.42;;;0.80;;
28627;SDS011;15815;46.760;19.604;2023-08-12T12:24:31;0.77;;;0.77;;
28627;SDS011;15815;46.760;19.604;2023-08-12T12:27:08;1.05;;;0.95;;
28627;SDS011;15815;46.760;19.604;2023-08-12T12:29:34;0.70;;;0.70;;
28627;SDS011;15815;46.760;19.604;2023-08-12T12:31:59;0.80;;;0.65;;
28627;SDS011;15815;46.760;19.604;2023-08-12T12:34:25;0.70;;;0.68;;
28627;SDS011;15815;46.760;19.604;2023-08-12T12:36:50;0.77;;;0.77;;
28627;SDS011;15815;46.760;19.604;2023-08-12T12:39:15;0.98;;;0.77;;
28627;SDS011;15815;46.760;19.604;2023-08-12T12:41:41;1.80;;;1.00;;
28627;SDS011;15815;46.760;19.604;2023-08-12T12:44:06;1.30;;;0.77;;
28627;SDS011;15815;46.760;19.604;2023-08-12T12:46:32;1.55;;;0.93;;
28627;SDS011;15815;46.760;19.604;2023-08-12T12:48:57;1.02;;;0.95;;
28627;SDS011;15815;46.760;19.604;2023-08-12T12:51:23;1.40;;;0.82;;
28627;SDS011;15815;46.760;19.604;2023-08-12T12:53:48;1.20;;;0.93;;
28627;SDS011;15815;46.760;19.604;2023-08-12T12:56:14;1.20;;;0.80;;
28627;SDS011;15815;46.760;19.604;2023-08-12T12:58:40;1.08;;;0.73;;
28627;SDS011;15815;46.760;19.604;2023-08-12T13:01:05;2.42;;;0.90;;
28627;SDS011;15815;46.760;19.604;2023-08-12T13:03:33;1.13;;;0.93;;
28627;SDS011;15815;46.760;19.604;2023-08-12T13:05:58;0.90;;;0.82;;
28627;SDS011;15815;46.760;19.604;2023-08-12T13:08:24;1.48;;;0.80;;
28627;SDS011;15815;46.760;19.604;2023-08-12T13:10:53;1.65;;;1.10;;
28627;SDS011;15815;46.760;19.604;2023-08-12T13:13:18;1.00;;;0.80;;
28627;SDS011;15815;46.760;19.604;2023-08-12T13:15:44;3.63;;;1.10;;
28627;SDS011;15815;46.760;19.604;2023-08-12T13:18:11;1.00;;;0.70;;
28627;SDS011;15815;46.760;19.604;2023-08-12T13:20:37;0.95;;;0.85;;
28627;SDS011;15815;46.760;19.604;2023-08-12T13:23:03;0.80;;;0.80;;
28627;SDS011;15815;46.760;19.604;2023-08-12T13:25:32;0.82;;;0.80;;
28627;SDS011;15815;46.760;19.604;2023-08-12T13:28:02;0.90;;;0.88;;
28627;SDS011;15815;46.760;19.604;2023-08-12T13:30:28;1.37;;;0.87;;
28627;SDS011;15815;46.760;19.604;2023-08-12T13:32:56;0.70;;;0.70;;
28627;SDS011;15815;46.760;19.604;2023-08-12T13:35:22;1.33;;;0.60;;
28627;SDS011;15815;46.760;19.604;2023-08-12T13:37:54;0.90;;;0.90;;
28627;SDS011;15815;46.760;19.604;2023-08-12T13:40:22;1.42;;;1.10;;
28627;SDS011;15815;46.760;19.604;2023-08-12T13:42:48;0.85;;;0.85;;
28627;SDS011;15815;46.760;19.604;2023-08-12T13:45:14;0.93;;;0.80;;
28627;SDS011;15815;46.760;19.604;2023-08-12T13:47:39;1.92;;;1.00;;
28627;SDS011;15815;46.760;19.604;2023-08-12T13:50:05;1.40;;;0.80;;
28627;SDS011;15815;46.760;19.604;2023-08-12T13:52:31;1.20;;;0.63;;
28627;SDS011;15815;46.760;19.604;2023-08-12T13:54:56;1.02;;;0.77;;
28627;SDS011;15815;46.760;19.604;2023-08-12T13:57:22;0.70;;;0.70;;
28627;SDS011;15815;46.760;19.604;2023-08-12T13:59:47;0.80;;;0.80;;
28627;SDS011;15815;46.760;19.604;2023-08-12T14:02:14;0.98;;;0.88;;
28627;SDS011;15815;46.760;19.604;2023-08-12T14:04:40;1.40;;;0.95;;
28627;SDS011;15815;46.760;19.604;2023-08-12T14:07:05;1.15;;;1.05;;
28627;SDS011;15815;46.760;19.604;2023-08-12T14:09:31;2.08;;;0.88;;
28627;SDS011;15815;46.760;19.604;2023-08-12T14:11:58;0.73;;;0.73;;
28627;SDS011;15815;46.760;19.604;2023-08-12T14:14:24;1.08;;;0.98;;
28627;SDS011;15815;46.760;19.604;2023-08-12T14:16:50;2.22;;;1.00;;
28627;SDS011;15815;46.760;19.604;2023-08-12T14:19:15;2.08;;;1.10;;
28627;SDS011;15815;46.760;19.604;2023-08-12T14:21:42;0.90;;;0.90;;
28627;SDS011;15815;46.760;19.604;2023-08-12T14:24:08;1.17;;;0.82;;
28627;SDS011;15815;46.760;19.604;2023-08-12T14:26:34;1.83;;;1.00;;
28627;SDS011;15815;46.760;19.604;2023-08-12T14:29:00;1.65;;;1.00;;
28627;SDS011;15815;46.760;19.604;2023-08-12T14:31:25;3.05;;;1.15;;
28627;SDS011;15815;46.760;19.604;2023-08-12T14:33:51;1.63;;;1.05;;
28627;SDS011;15815;46.760;19.604;2023-08-12T14:36:16;1.70;;;1.00;;
28627;SDS011;15815;46.760;19.604;2023-08-12T14:38:42;2.13;;;0.85;;
28627;SDS011;15815;46.760;19.604;2023-08-12T14:41:07;1.02;;;0.90;;
28627;SDS011;15815;46.760;19.604;2023-08-12T14:43:33;1.13;;;0.90;;
28627;SDS011;15815;46.760;19.604;2023-08-12T14:45:58;0.73;;;0.70;;